Crestview, Florida
Current Conditions -  °F | °C
As of 9:39 PM on Monday 22 Dec 2014 (Local Time) from KCEW Reporting Station
Moderate Fog Moderate Fog  
Wind Chill: 57°   Ceiling: 300
Heat Index: 57°   Visibility: 0.25mi
Dew Point: 57°   Wind: 0mph
Humidity: 100%   Direction: NA
Pressure: 29.84"   Gusts: NA
Location:  30.76°N, 86.57°W
Report Text: KCEW 230339Z AUTO 00000KT 1/4SM FG VV003 14/14 A2984 RMK AO2 T01390139
Loading
Personal Weather Stations






























Interactive Weather Map New forecast layout! Learn more

10-Day Weather Forecast

Advertisements
Track Severe Weather on mobile